sensor_id;sensor_type;location;lat;lon;timestamp;P1;durP1;ratioP1;P2;durP2;ratioP2
23743;SDS011;12052;53.478;10.182;2022-11-20T00:01:17;8.82;;;3.85;;
23743;SDS011;12052;53.478;10.182;2022-11-20T00:03:44;9.32;;;4.80;;
23743;SDS011;12052;53.478;10.182;2022-11-20T00:06:19;13.60;;;4.72;;
23743;SDS011;12052;53.478;10.182;2022-11-20T00:08:46;12.38;;;4.90;;
23743;SDS011;12052;53.478;10.182;2022-11-20T00:11:15;11.68;;;5.32;;
23743;SDS011;12052;53.478;10.182;2022-11-20T00:13:47;10.10;;;4.22;;
23743;SDS011;12052;53.478;10.182;2022-11-20T00:16:22;8.95;;;4.57;;
23743;SDS011;12052;53.478;10.182;2022-11-20T00:18:54;7.70;;;4.25;;
23743;SDS011;12052;53.478;10.182;2022-11-20T00:21:28;9.80;;;5.00;;
23743;SDS011;12052;53.478;10.182;2022-11-20T00:23:55;7.32;;;4.22;;
23743;SDS011;12052;53.478;10.182;2022-11-20T00:26:22;8.73;;;4.45;;
23743;SDS011;12052;53.478;10.182;2022-11-20T00:28:53;6.15;;;4.15;;
23743;SDS011;12052;53.478;10.182;2022-11-20T00:31:23;7.22;;;4.05;;
23743;SDS011;12052;53.478;10.182;2022-11-20T00:33:52;8.23;;;3.92;;
23743;SDS011;12052;53.478;10.182;2022-11-20T00:36:22;6.97;;;3.95;;
23743;SDS011;12052;53.478;10.182;2022-11-20T00:38:55;9.85;;;4.45;;
23743;SDS011;12052;53.478;10.182;2022-11-20T00:41:23;10.23;;;4.72;;
23743;SDS011;12052;53.478;10.182;2022-11-20T00:43:51;7.63;;;4.30;;
23743;SDS011;12052;53.478;10.182;2022-11-20T00:46:23;9.63;;;3.97;;
23743;SDS011;12052;53.478;10.182;2022-11-20T00:48:51;10.20;;;4.07;;
23743;SDS011;12052;53.478;10.182;2022-11-20T00:51:23;11.60;;;4.38;;
23743;SDS011;12052;53.478;10.182;2022-11-20T00:53:57;7.00;;;4.20;;
23743;SDS011;12052;53.478;10.182;2022-11-20T00:56:25;8.20;;;4.50;;
23743;SDS011;12052;53.478;10.182;2022-11-20T00:58:51;7.30;;;4.22;;
23743;SDS011;12052;53.478;10.182;2022-11-20T01:01:19;7.18;;;4.32;;
23743;SDS011;12052;53.478;10.182;2022-11-20T01:03:50;6.47;;;4.00;;
23743;SDS011;12052;53.478;10.182;2022-11-20T01:06:18;7.10;;;4.18;;
23743;SDS011;12052;53.478;10.182;2022-11-20T01:08:45;8.23;;;4.20;;
23743;SDS011;12052;53.478;10.182;2022-11-20T01:11:19;6.18;;;3.67;;
23743;SDS011;12052;53.478;10.182;2022-11-20T01:13:47;7.95;;;4.22;;
23743;SDS011;12052;53.478;10.182;2022-11-20T01:16:22;10.15;;;4.60;;
23743;SDS011;12052;53.478;10.182;2022-11-20T01:19:13;10.32;;;4.15;;
23743;SDS011;12052;53.478;10.182;2022-11-20T01:21:42;6.53;;;4.18;;
23743;SDS011;12052;53.478;10.182;2022-11-20T01:24:16;8.00;;;3.22;;
23743;SDS011;12052;53.478;10.182;2022-11-20T01:26:43;5.63;;;3.88;;
23743;SDS011;12052;53.478;10.182;2022-11-20T01:29:17;6.72;;;4.00;;
23743;SDS011;12052;53.478;10.182;2022-11-20T01:31:49;5.38;;;3.72;;
23743;SDS011;12052;53.478;10.182;2022-11-20T01:34:20;6.55;;;3.80;;
23743;SDS011;12052;53.478;10.182;2022-11-20T01:36:49;6.50;;;3.80;;
23743;SDS011;12052;53.478;10.182;2022-11-20T01:39:23;16.63;;;4.25;;
23743;SDS011;12052;53.478;10.182;2022-11-20T01:41:55;7.30;;;4.30;;
23743;SDS011;12052;53.478;10.182;2022-11-20T01:44:54;7.80;;;3.80;;
23743;SDS011;12052;53.478;10.182;2022-11-20T01:47:37;8.68;;;3.75;;
23743;SDS011;12052;53.478;10.182;2022-11-20T01:50:14;6.72;;;4.07;;
23743;SDS011;12052;53.478;10.182;2022-11-20T01:53:02;10.15;;;4.00;;
23743;SDS011;12052;53.478;10.182;2022-11-20T01:55:36;6.97;;;4.35;;
23743;SDS011;12052;53.478;10.182;2022-11-20T01:58:08;6.68;;;3.80;;
23743;SDS011;12052;53.478;10.182;2022-11-20T02:00:34;8.70;;;4.00;;
23743;SDS011;12052;53.478;10.182;2022-11-20T02:03:17;8.05;;;3.80;;
23743;SDS011;12052;53.478;10.182;2022-11-20T02:05:52;15.10;;;4.47;;
23743;SDS011;12052;53.478;10.182;2022-11-20T02:08:23;6.93;;;3.55;;
23743;SDS011;12052;53.478;10.182;2022-11-20T02:10:59;5.40;;;3.70;;
23743;SDS011;12052;53.478;10.182;2022-11-20T02:13:25;7.15;;;4.03;;
23743;SDS011;12052;53.478;10.182;2022-11-20T02:16:23;6.63;;;4.13;;
23743;SDS011;12052;53.478;10.182;2022-11-20T02:18:53;8.65;;;4.30;;
23743;SDS011;12052;53.478;10.182;2022-11-20T02:21:23;5.15;;;4.07;;
23743;SDS011;12052;53.478;10.182;2022-11-20T02:24:07;10.18;;;4.50;;
23743;SDS011;12052;53.478;10.182;2022-11-20T02:26:42;8.93;;;4.15;;
23743;SDS011;12052;53.478;10.182;2022-11-20T02:29:50;6.07;;;3.65;;
23743;SDS011;12052;53.478;10.182;2022-11-20T02:32:21;13.45;;;4.03;;
23743;SDS011;12052;53.478;10.182;2022-11-20T02:34:50;6.75;;;4.05;;
23743;SDS011;12052;53.478;10.182;2022-11-20T02:37:21;6.13;;;4.22;;
23743;SDS011;12052;53.478;10.182;2022-11-20T02:39:51;7.93;;;4.18;;
23743;SDS011;12052;53.478;10.182;2022-11-20T02:42:24;9.00;;;4.63;;
23743;SDS011;12052;53.478;10.182;2022-11-20T02:44:51;8.70;;;3.70;;
23743;SDS011;12052;53.478;10.182;2022-11-20T02:47:22;8.60;;;4.95;;
23743;SDS011;12052;53.478;10.182;2022-11-20T02:49:51;6.50;;;4.25;;
23743;SDS011;12052;53.478;10.182;2022-11-20T02:52:17;8.15;;;4.55;;
23743;SDS011;12052;53.478;10.182;2022-11-20T02:54:43;8.35;;;4.88;;
23743;SDS011;12052;53.478;10.182;2022-11-20T02:57:12;10.02;;;4.43;;
23743;SDS011;12052;53.478;10.182;2022-11-20T02:59:43;10.18;;;4.55;;
23743;SDS011;12052;53.478;10.182;2022-11-20T03:02:09;8.07;;;4.45;;
23743;SDS011;12052;53.478;10.182;2022-11-20T03:04:35;10.77;;;4.60;;
23743;SDS011;12052;53.478;10.182;2022-11-20T03:07:12;8.57;;;4.38;;
23743;SDS011;12052;53.478;10.182;2022-11-20T03:09:37;13.05;;;4.88;;
23743;SDS011;12052;53.478;10.182;2022-11-20T03:12:07;7.65;;;4.75;;
23743;SDS011;12052;53.478;10.182;2022-11-20T03:14:49;6.63;;;4.30;;
23743;SDS011;12052;53.478;10.182;2022-11-20T03:17:17;6.93;;;4.18;;
23743;SDS011;12052;53.478;10.182;2022-11-20T03:19:45;8.52;;;4.65;;
23743;SDS011;12052;53.478;10.182;2022-11-20T03:22:13;9.98;;;4.75;;
23743;SDS011;12052;53.478;10.182;2022-11-20T03:24:44;6.80;;;4.43;;
23743;SDS011;12052;53.478;10.182;2022-11-20T03:27:10;8.55;;;4.50;;
23743;SDS011;12052;53.478;10.182;2022-11-20T03:29:35;8.88;;;4.13;;
23743;SDS011;12052;53.478;10.182;2022-11-20T03:32:04;9.82;;;4.60;;
23743;SDS011;12052;53.478;10.182;2022-11-20T03:34:37;8.13;;;4.30;;
23743;SDS011;12052;53.478;10.182;2022-11-20T03:37:08;6.30;;;4.55;;
23743;SDS011;12052;53.478;10.182;2022-11-20T03:39:37;6.30;;;4.75;;
23743;SDS011;12052;53.478;10.182;2022-11-20T03:42:07;7.60;;;4.60;;
23743;SDS011;12052;53.478;10.182;2022-11-20T03:44:54;9.20;;;4.82;;
23743;SDS011;12052;53.478;10.182;2022-11-20T03:47:22;11.60;;;4.40;;
23743;SDS011;12052;53.478;10.182;2022-11-20T03:49:56;8.65;;;4.60;;
23743;SDS011;12052;53.478;10.182;2022-11-20T03:52:27;8.27;;;4.13;;
23743;SDS011;12052;53.478;10.182;2022-11-20T03:54:55;7.82;;;3.72;;
23743;SDS011;12052;53.478;10.182;2022-11-20T03:57:24;6.80;;;3.97;;
23743;SDS011;12052;53.478;10.182;2022-11-20T03:59:53;8.10;;;4.32;;
23743;SDS011;12052;53.478;10.182;2022-11-20T04:02:21;8.50;;;4.60;;
23743;SDS011;12052;53.478;10.182;2022-11-20T04:04:49;8.82;;;4.25;;
23743;SDS011;12052;53.478;10.182;2022-11-20T04:07:17;8.35;;;4.63;;
23743;SDS011;12052;53.478;10.182;2022-11-20T04:09:43;8.55;;;4.38;;
23743;SDS011;12052;53.478;10.182;2022-11-20T04:12:09;6.43;;;4.18;;
23743;SDS011;12052;53.478;10.182;2022-11-20T04:14:37;6.13;;;3.95;;
23743;SDS011;12052;53.478;10.182;2022-11-20T04:17:10;8.00;;;4.65;;
23743;SDS011;12052;53.478;10.182;2022-11-20T04:19:39;8.40;;;4.28;;
23743;SDS011;12052;53.478;10.182;2022-11-20T04:22:08;10.40;;;4.57;;
23743;SDS011;12052;53.478;10.182;2022-11-20T04:24:38;9.07;;;4.63;;
23743;SDS011;12052;53.478;10.182;2022-11-20T04:27:12;7.32;;;4.05;;
23743;SDS011;12052;53.478;10.182;2022-11-20T04:29:43;8.35;;;4.50;;
23743;SDS011;12052;53.478;10.182;2022-11-20T04:32:09;7.47;;;4.25;;
23743;SDS011;12052;53.478;10.182;2022-11-20T04:34:35;12.25;;;4.22;;
23743;SDS011;12052;53.478;10.182;2022-11-20T04:37:01;11.73;;;4.28;;
23743;SDS011;12052;53.478;10.182;2022-11-20T04:39:27;8.18;;;4.20;;
23743;SDS011;12052;53.478;10.182;2022-11-20T04:41:56;9.65;;;4.40;;
23743;SDS011;12052;53.478;10.182;2022-11-20T04:44:45;7.35;;;4.18;;
23743;SDS011;12052;53.478;10.182;2022-11-20T04:47:13;10.20;;;5.15;;
23743;SDS011;12052;53.478;10.182;2022-11-20T04:49:41;5.85;;;4.20;;
23743;SDS011;12052;53.478;10.182;2022-11-20T04:52:11;8.70;;;4.53;;
23743;SDS011;12052;53.478;10.182;2022-11-20T04:54:39;7.05;;;4.43;;
23743;SDS011;12052;53.478;10.182;2022-11-20T04:57:08;7.35;;;4.80;;
23743;SDS011;12052;53.478;10.182;2022-11-20T04:59:34;9.15;;;4.70;;
23743;SDS011;12052;53.478;10.182;2022-11-20T05:02:00;8.40;;;4.78;;
23743;SDS011;12052;53.478;10.182;2022-11-20T05:04:29;16.13;;;4.30;;
23743;SDS011;12052;53.478;10.182;2022-11-20T05:07:02;8.10;;;4.32;;
23743;SDS011;12052;53.478;10.182;2022-11-20T05:09:30;9.90;;;5.20;;
23743;SDS011;12052;53.478;10.182;2022-11-20T05:11:58;7.40;;;4.75;;
23743;SDS011;12052;53.478;10.182;2022-11-20T05:14:27;13.13;;;4.65;;
23743;SDS011;12052;53.478;10.182;2022-11-20T05:16:57;7.97;;;4.88;;
23743;SDS011;12052;53.478;10.182;2022-11-20T05:19:26;7.78;;;5.03;;
23743;SDS011;12052;53.478;10.182;2022-11-20T05:21:54;6.22;;;4.70;;
23743;SDS011;12052;53.478;10.182;2022-11-20T05:24:29;10.68;;;4.18;;
23743;SDS011;12052;53.478;10.182;2022-11-20T05:26:55;10.63;;;5.07;;
23743;SDS011;12052;53.478;10.182;2022-11-20T05:29:31;7.05;;;4.78;;
23743;SDS011;12052;53.478;10.182;2022-11-20T05:32:02;11.60;;;4.70;;
23743;SDS011;12052;53.478;10.182;2022-11-20T05:34:28;10.38;;;5.18;;
23743;SDS011;12052;53.478;10.182;2022-11-20T05:36:54;8.50;;;4.72;;
23743;SDS011;12052;53.478;10.182;2022-11-20T05:39:22;8.73;;;4.72;;
23743;SDS011;12052;53.478;10.182;2022-11-20T05:41:49;6.72;;;4.30;;
23743;SDS011;12052;53.478;10.182;2022-11-20T05:44:42;9.70;;;4.22;;
23743;SDS011;12052;53.478;10.182;2022-11-20T05:47:08;9.10;;;4.82;;
23743;SDS011;12052;53.478;10.182;2022-11-20T05:49:43;8.80;;;4.18;;
23743;SDS011;12052;53.478;10.182;2022-11-20T05:52:14;9.20;;;4.65;;
23743;SDS011;12052;53.478;10.182;2022-11-20T05:54:40;11.00;;;4.95;;
23743;SDS011;12052;53.478;10.182;2022-11-20T05:57:08;5.57;;;3.85;;
23743;SDS011;12052;53.478;10.182;2022-11-20T05:59:34;8.05;;;4.65;;
23743;SDS011;12052;53.478;10.182;2022-11-20T06:02:09;8.60;;;4.32;;
23743;SDS011;12052;53.478;10.182;2022-11-20T06:04:37;9.15;;;4.10;;
23743;SDS011;12052;53.478;10.182;2022-11-20T06:07:10;6.75;;;3.95;;
23743;SDS011;12052;53.478;10.182;2022-11-20T06:09:36;8.13;;;3.92;;
23743;SDS011;12052;53.478;10.182;2022-11-20T06:12:02;8.38;;;4.22;;
23743;SDS011;12052;53.478;10.182;2022-11-20T06:14:39;6.43;;;4.10;;
23743;SDS011;12052;53.478;10.182;2022-11-20T06:17:09;12.68;;;4.43;;
23743;SDS011;12052;53.478;10.182;2022-11-20T06:19:40;5.18;;;4.03;;
23743;SDS011;12052;53.478;10.182;2022-11-20T06:22:09;7.32;;;4.30;;
23743;SDS011;12052;53.478;10.182;2022-11-20T06:24:40;12.93;;;4.20;;
23743;SDS011;12052;53.478;10.182;2022-11-20T06:27:06;7.00;;;4.43;;
23743;SDS011;12052;53.478;10.182;2022-11-20T06:29:31;8.68;;;3.85;;
23743;SDS011;12052;53.478;10.182;2022-11-20T06:32:03;8.27;;;4.60;;
23743;SDS011;12052;53.478;10.182;2022-11-20T06:34:29;8.10;;;4.18;;
23743;SDS011;12052;53.478;10.182;2022-11-20T06:37:01;9.05;;;4.63;;
23743;SDS011;12052;53.478;10.182;2022-11-20T06:39:31;7.05;;;4.07;;
23743;SDS011;12052;53.478;10.182;2022-11-20T06:42:09;7.90;;;4.90;;
23743;SDS011;12052;53.478;10.182;2022-11-20T06:44:35;6.68;;;4.50;;
23743;SDS011;12052;53.478;10.182;2022-11-20T06:47:01;8.05;;;4.80;;
23743;SDS011;12052;53.478;10.182;2022-11-20T06:49:36;7.45;;;4.38;;
23743;SDS011;12052;53.478;10.182;2022-11-20T06:52:08;6.50;;;4.13;;
23743;SDS011;12052;53.478;10.182;2022-11-20T06:54:42;9.80;;;4.22;;
23743;SDS011;12052;53.478;10.182;2022-11-20T06:57:09;6.90;;;4.30;;
23743;SDS011;12052;53.478;10.182;2022-11-20T06:59:35;7.63;;;4.72;;
23743;SDS011;12052;53.478;10.182;2022-11-20T07:02:01;8.75;;;4.10;;
23743;SDS011;12052;53.478;10.182;2022-11-20T07:04:40;11.85;;;4.50;;
23743;SDS011;12052;53.478;10.182;2022-11-20T07:07:14;10.00;;;4.90;;
23743;SDS011;12052;53.478;10.182;2022-11-20T07:09:45;8.63;;;4.32;;
23743;SDS011;12052;53.478;10.182;2022-11-20T07:12:14;10.65;;;4.53;;
23743;SDS011;12052;53.478;10.182;2022-11-20T07:14:40;9.18;;;4.05;;
23743;SDS011;12052;53.478;10.182;2022-11-20T07:17:06;12.20;;;4.05;;
23743;SDS011;12052;53.478;10.182;2022-11-20T07:19:33;10.60;;;4.60;;
23743;SDS011;12052;53.478;10.182;2022-11-20T07:22:01;8.70;;;4.43;;
23743;SDS011;12052;53.478;10.182;2022-11-20T07:24:33;9.45;;;4.85;;
23743;SDS011;12052;53.478;10.182;2022-11-20T07:27:02;9.80;;;4.75;;
23743;SDS011;12052;53.478;10.182;2022-11-20T07:29:33;7.72;;;4.75;;
23743;SDS011;12052;53.478;10.182;2022-11-20T07:32:02;6.32;;;4.13;;
23743;SDS011;12052;53.478;10.182;2022-11-20T07:34:37;7.13;;;4.40;;
23743;SDS011;12052;53.478;10.182;2022-11-20T07:37:07;9.48;;;4.20;;
23743;SDS011;12052;53.478;10.182;2022-11-20T07:39:36;8.25;;;4.50;;
23743;SDS011;12052;53.478;10.182;2022-11-20T07:42:09;7.28;;;4.25;;
23743;SDS011;12052;53.478;10.182;2022-11-20T07:44:38;7.75;;;4.60;;
23743;SDS011;12052;53.478;10.182;2022-11-20T07:47:14;8.95;;;4.43;;
23743;SDS011;12052;53.478;10.182;2022-11-20T07:49:43;9.65;;;5.05;;
23743;SDS011;12052;53.478;10.182;2022-11-20T07:52:22;8.07;;;4.88;;
23743;SDS011;12052;53.478;10.182;2022-11-20T07:54:55;10.15;;;5.15;;
23743;SDS011;12052;53.478;10.182;2022-11-20T07:57:24;10.05;;;4.90;;
23743;SDS011;12052;53.478;10.182;2022-11-20T07:59:51;8.15;;;4.80;;
23743;SDS011;12052;53.478;10.182;2022-11-20T08:02:17;8.32;;;4.97;;
23743;SDS011;12052;53.478;10.182;2022-11-20T08:04:46;9.10;;;4.78;;
23743;SDS011;12052;53.478;10.182;2022-11-20T08:07:20;9.02;;;5.28;;
23743;SDS011;12052;53.478;10.182;2022-11-20T08:09:47;8.32;;;5.38;;
23743;SDS011;12052;53.478;10.182;2022-11-20T08:12:20;8.48;;;4.55;;
23743;SDS011;12052;53.478;10.182;2022-11-20T08:15:10;14.68;;;6.93;;
23743;SDS011;12052;53.478;10.182;2022-11-20T08:17:41;17.15;;;7.85;;
23743;SDS011;12052;53.478;10.182;2022-11-20T08:20:11;8.57;;;5.93;;
23743;SDS011;12052;53.478;10.182;2022-11-20T08:22:38;12.45;;;6.70;;
23743;SDS011;12052;53.478;10.182;2022-11-20T08:25:04;11.13;;;6.35;;
23743;SDS011;12052;53.478;10.182;2022-11-20T08:27:34;11.73;;;6.32;;
23743;SDS011;12052;53.478;10.182;2022-11-20T08:29:59;14.35;;;8.05;;
23743;SDS011;12052;53.478;10.182;2022-11-20T08:32:33;14.73;;;8.07;;
23743;SDS011;12052;53.478;10.182;2022-11-20T08:35:01;15.70;;;8.57;;
23743;SDS011;12052;53.478;10.182;2022-11-20T08:37:30;15.80;;;8.40;;
23743;SDS011;12052;53.478;10.182;2022-11-20T08:40:00;17.42;;;8.90;;
23743;SDS011;12052;53.478;10.182;2022-11-20T08:42:30;17.02;;;9.20;;
23743;SDS011;12052;53.478;10.182;2022-11-20T08:44:56;16.33;;;9.15;;
23743;SDS011;12052;53.478;10.182;2022-11-20T08:47:33;13.27;;;8.50;;
23743;SDS011;12052;53.478;10.182;2022-11-20T08:50:06;19.10;;;8.90;;
23743;SDS011;12052;53.478;10.182;2022-11-20T08:52:35;21.05;;;9.63;;
23743;SDS011;12052;53.478;10.182;2022-11-20T08:55:01;17.25;;;8.95;;
23743;SDS011;12052;53.478;10.182;2022-11-20T08:57:37;15.50;;;8.25;;
23743;SDS011;12052;53.478;10.182;2022-11-20T09:02:38;11.55;;;7.00;;
23743;SDS011;12052;53.478;10.182;2022-11-20T09:05:04;13.65;;;7.65;;
23743;SDS011;12052;53.478;10.182;2022-11-20T09:07:35;11.32;;;7.07;;
23743;SDS011;12052;53.478;10.182;2022-11-20T09:10:09;10.93;;;6.35;;
23743;SDS011;12052;53.478;10.182;2022-11-20T09:12:35;10.63;;;5.22;;
23743;SDS011;12052;53.478;10.182;2022-11-20T09:15:04;7.97;;;4.85;;
23743;SDS011;12052;53.478;10.182;2022-11-20T09:17:30;17.35;;;5.00;;
23743;SDS011;12052;53.478;10.182;2022-11-20T09:19:57;8.32;;;4.65;;
23743;SDS011;12052;53.478;10.182;2022-11-20T09:22:23;8.05;;;4.32;;
23743;SDS011;12052;53.478;10.182;2022-11-20T09:24:49;11.88;;;4.32;;
23743;SDS011;12052;53.478;10.182;2022-11-20T09:27:16;7.53;;;4.22;;
23743;SDS011;12052;53.478;10.182;2022-11-20T09:29:50;3.92;;;2.80;;
23743;SDS011;12052;53.478;10.182;2022-11-20T09:32:22;5.38;;;3.13;;
23743;SDS011;12052;53.478;10.182;2022-11-20T09:34:48;6.40;;;3.13;;
23743;SDS011;12052;53.478;10.182;2022-11-20T09:37:17;4.50;;;2.72;;
23743;SDS011;12052;53.478;10.182;2022-11-20T09:39:49;4.50;;;2.88;;
23743;SDS011;12052;53.478;10.182;2022-11-20T09:45:23;7.30;;;3.25;;
23743;SDS011;12052;53.478;10.182;2022-11-20T09:56:44;5.32;;;3.20;;
23743;SDS011;12052;53.478;10.182;2022-11-20T09:59:18;5.43;;;2.93;;
23743;SDS011;12052;53.478;10.182;2022-11-20T10:01:56;4.63;;;3.47;;
23743;SDS011;12052;53.478;10.182;2022-11-20T10:04:26;6.95;;;3.50;;
23743;SDS011;12052;53.478;10.182;2022-11-20T10:07:00;6.57;;;3.90;;
23743;SDS011;12052;53.478;10.182;2022-11-20T10:09:36;5.75;;;3.50;;
23743;SDS011;12052;53.478;10.182;2022-11-20T10:12:11;5.97;;;3.40;;
23743;SDS011;12052;53.478;10.182;2022-11-20T10:17:55;4.50;;;3.35;;
23743;SDS011;12052;53.478;10.182;2022-11-20T10:23:21;6.00;;;3.67;;
23743;SDS011;12052;53.478;10.182;2022-11-20T10:26:22;5.35;;;3.58;;
23743;SDS011;12052;53.478;10.182;2022-11-20T10:29:05;9.15;;;4.72;;
23743;SDS011;12052;53.478;10.182;2022-11-20T10:31:37;7.55;;;4.00;;
23743;SDS011;12052;53.478;10.182;2022-11-20T10:34:16;6.63;;;4.00;;
23743;SDS011;12052;53.478;10.182;2022-11-20T10:39:42;6.82;;;3.97;;
23743;SDS011;12052;53.478;10.182;2022-11-20T10:42:23;7.88;;;3.92;;
23743;SDS011;12052;53.478;10.182;2022-11-20T10:47:56;6.18;;;3.92;;
23743;SDS011;12052;53.478;10.182;2022-11-20T10:50:40;6.38;;;3.97;;
23743;SDS011;12052;53.478;10.182;2022-11-20T10:53:25;5.13;;;3.45;;
23743;SDS011;12052;53.478;10.182;2022-11-20T10:56:16;6.68;;;3.95;;
23743;SDS011;12052;53.478;10.182;2022-11-20T11:01:40;6.07;;;3.78;;
23743;SDS011;12052;53.478;10.182;2022-11-20T11:09:49;4.88;;;3.60;;
23743;SDS011;12052;53.478;10.182;2022-11-20T11:12:20;5.07;;;3.72;;
23743;SDS011;12052;53.478;10.182;2022-11-20T11:14:52;5.93;;;4.03;;
23743;SDS011;12052;53.478;10.182;2022-11-20T11:17:24;6.25;;;3.65;;
23743;SDS011;12052;53.478;10.182;2022-11-20T11:20:00;6.18;;;4.00;;
23743;SDS011;12052;53.478;10.182;2022-11-20T11:22:44;6.50;;;4.22;;
23743;SDS011;12052;53.478;10.182;2022-11-20T11:25:26;5.95;;;3.65;;
23743;SDS011;12052;53.478;10.182;2022-11-20T11:27:55;6.13;;;3.60;;
23743;SDS011;12052;53.478;10.182;2022-11-20T11:30:23;5.35;;;3.45;;
23743;SDS011;12052;53.478;10.182;2022-11-20T11:33:02;5.70;;;3.75;;
23743;SDS011;12052;53.478;10.182;2022-11-20T11:35:29;3.88;;;2.95;;
23743;SDS011;12052;53.478;10.182;2022-11-20T11:38:06;4.10;;;3.17;;
23743;SDS011;12052;53.478;10.182;2022-11-20T11:40:37;4.32;;;3.00;;
23743;SDS011;12052;53.478;10.182;2022-11-20T11:43:15;6.80;;;3.20;;
23743;SDS011;12052;53.478;10.182;2022-11-20T11:46:02;4.65;;;2.75;;
23743;SDS011;12052;53.478;10.182;2022-11-20T11:48:56;4.90;;;3.15;;
23743;SDS011;12052;53.478;10.182;2022-11-20T11:54:38;4.07;;;2.80;;
23743;SDS011;12052;53.478;10.182;2022-11-20T12:00:12;6.03;;;3.50;;
23743;SDS011;12052;53.478;10.182;2022-11-20T12:15:59;4.25;;;3.22;;
23743;SDS011;12052;53.478;10.182;2022-11-20T12:18:27;3.95;;;2.88;;
23743;SDS011;12052;53.478;10.182;2022-11-20T12:23:23;5.70;;;2.60;;
23743;SDS011;12052;53.478;10.182;2022-11-20T12:25:59;5.70;;;3.00;;
23743;SDS011;12052;53.478;10.182;2022-11-20T12:28:39;5.50;;;3.00;;
23743;SDS011;12052;53.478;10.182;2022-11-20T12:34:12;4.00;;;2.90;;
23743;SDS011;12052;53.478;10.182;2022-11-20T12:45:28;4.68;;;2.97;;
23743;SDS011;12052;53.478;10.182;2022-11-20T13:00:11;3.03;;;2.03;;
23743;SDS011;12052;53.478;10.182;2022-11-20T13:05:43;3.92;;;2.78;;
23743;SDS011;12052;53.478;10.182;2022-11-20T13:08:20;2.60;;;1.83;;
23743;SDS011;12052;53.478;10.182;2022-11-20T13:16:45;5.68;;;2.78;;
23743;SDS011;12052;53.478;10.182;2022-11-20T13:19:15;3.10;;;2.30;;
23743;SDS011;12052;53.478;10.182;2022-11-20T13:21:44;2.58;;;2.10;;
23743;SDS011;12052;53.478;10.182;2022-11-20T13:26:45;3.05;;;2.17;;
23743;SDS011;12052;53.478;10.182;2022-11-20T13:29:18;2.70;;;2.22;;
23743;SDS011;12052;53.478;10.182;2022-11-20T13:31:50;4.93;;;2.60;;
23743;SDS011;12052;53.478;10.182;2022-11-20T13:34:23;4.30;;;2.58;;
23743;SDS011;12052;53.478;10.182;2022-11-20T13:36:54;3.25;;;2.20;;
23743;SDS011;12052;53.478;10.182;2022-11-20T13:39:32;2.20;;;2.00;;
23743;SDS011;12052;53.478;10.182;2022-11-20T13:42:02;3.60;;;2.20;;
23743;SDS011;12052;53.478;10.182;2022-11-20T13:44:54;4.20;;;2.47;;
23743;SDS011;12052;53.478;10.182;2022-11-20T13:47:24;3.13;;;2.30;;
23743;SDS011;12052;53.478;10.182;2022-11-20T13:49:59;4.00;;;2.88;;
23743;SDS011;12052;53.478;10.182;2022-11-20T13:52:39;3.80;;;2.90;;
23743;SDS011;12052;53.478;10.182;2022-11-20T13:55:28;3.75;;;2.83;;
23743;SDS011;12052;53.478;10.182;2022-11-20T14:01:28;4.00;;;2.50;;
23743;SDS011;12052;53.478;10.182;2022-11-20T14:03:58;4.95;;;2.90;;
23743;SDS011;12052;53.478;10.182;2022-11-20T14:08:55;3.85;;;3.08;;
23743;SDS011;12052;53.478;10.182;2022-11-20T14:11:28;5.95;;;3.28;;
23743;SDS011;12052;53.478;10.182;2022-11-20T14:14:03;3.47;;;2.70;;
23743;SDS011;12052;53.478;10.182;2022-11-20T14:16:38;3.95;;;2.75;;
23743;SDS011;12052;53.478;10.182;2022-11-20T14:25:06;5.05;;;2.90;;
23743;SDS011;12052;53.478;10.182;2022-11-20T14:27:47;5.93;;;3.45;;
23743;SDS011;12052;53.478;10.182;2022-11-20T14:30:19;4.47;;;3.30;;
23743;SDS011;12052;53.478;10.182;2022-11-20T14:32:48;4.65;;;3.15;;
23743;SDS011;12052;53.478;10.182;2022-11-20T14:35:28;3.28;;;2.78;;
23743;SDS011;12052;53.478;10.182;2022-11-20T14:38:03;4.43;;;2.95;;
23743;SDS011;12052;53.478;10.182;2022-11-20T14:40:35;4.95;;;2.97;;
23743;SDS011;12052;53.478;10.182;2022-11-20T14:43:30;4.55;;;3.17;;
23743;SDS011;12052;53.478;10.182;2022-11-20T14:46:09;3.88;;;3.10;;
23743;SDS011;12052;53.478;10.182;2022-11-20T14:48:39;8.15;;;3.42;;
23743;SDS011;12052;53.478;10.182;2022-11-20T14:54:27;4.03;;;2.85;;
23743;SDS011;12052;53.478;10.182;2022-11-20T14:57:03;3.90;;;2.60;;
23743;SDS011;12052;53.478;10.182;2022-11-20T14:59:33;4.35;;;3.05;;
23743;SDS011;12052;53.478;10.182;2022-11-20T15:02:04;3.58;;;2.53;;
23743;SDS011;12052;53.478;10.182;2022-11-20T15:04:51;3.13;;;2.40;;
23743;SDS011;12052;53.478;10.182;2022-11-20T15:07:36;4.25;;;3.13;;
23743;SDS011;12052;53.478;10.182;2022-11-20T15:10:10;5.53;;;3.80;;
23743;SDS011;12052;53.478;10.182;2022-11-20T15:12:50;4.63;;;2.85;;
23743;SDS011;12052;53.478;10.182;2022-11-20T15:18:19;4.55;;;2.83;;
23743;SDS011;12052;53.478;10.182;2022-11-20T15:20:53;6.05;;;3.63;;
23743;SDS011;12052;53.478;10.182;2022-11-20T15:23:31;12.65;;;5.47;;
23743;SDS011;12052;53.478;10.182;2022-11-20T15:26:13;12.05;;;6.47;;
23743;SDS011;12052;53.478;10.182;2022-11-20T15:28:46;7.20;;;5.00;;
23743;SDS011;12052;53.478;10.182;2022-11-20T15:31:20;7.35;;;4.07;;
23743;SDS011;12052;53.478;10.182;2022-11-20T15:33:47;7.22;;;4.22;;
23743;SDS011;12052;53.478;10.182;2022-11-20T15:36:19;6.00;;;3.70;;
23743;SDS011;12052;53.478;10.182;2022-11-20T15:38:50;5.43;;;3.67;;
23743;SDS011;12052;53.478;10.182;2022-11-20T15:41:17;7.57;;;4.50;;
23743;SDS011;12052;53.478;10.182;2022-11-20T15:43:48;4.85;;;3.60;;
23743;SDS011;12052;53.478;10.182;2022-11-20T15:46:19;11.75;;;5.70;;
23743;SDS011;12052;53.478;10.182;2022-11-20T15:48:59;7.90;;;3.90;;
23743;SDS011;12052;53.478;10.182;2022-11-20T15:51:36;6.53;;;4.30;;
23743;SDS011;12052;53.478;10.182;2022-11-20T15:54:12;5.95;;;3.78;;
23743;SDS011;12052;53.478;10.182;2022-11-20T15:56:47;6.88;;;4.60;;
23743;SDS011;12052;53.478;10.182;2022-11-20T15:59:28;4.60;;;3.53;;
23743;SDS011;12052;53.478;10.182;2022-11-20T16:01:55;5.28;;;3.90;;
23743;SDS011;12052;53.478;10.182;2022-11-20T16:04:28;11.85;;;4.75;;
23743;SDS011;12052;53.478;10.182;2022-11-20T16:06:58;7.75;;;4.30;;
23743;SDS011;12052;53.478;10.182;2022-11-20T16:09:29;5.70;;;3.85;;
23743;SDS011;12052;53.478;10.182;2022-11-20T16:11:59;8.48;;;4.47;;
23743;SDS011;12052;53.478;10.182;2022-11-20T16:14:28;11.00;;;6.18;;
23743;SDS011;12052;53.478;10.182;2022-11-20T16:17:16;9.75;;;6.95;;
23743;SDS011;12052;53.478;10.182;2022-11-20T16:20:04;6.82;;;4.30;;
23743;SDS011;12052;53.478;10.182;2022-11-20T16:22:35;9.23;;;6.13;;
23743;SDS011;12052;53.478;10.182;2022-11-20T16:25:07;8.52;;;5.55;;
23743;SDS011;12052;53.478;10.182;2022-11-20T16:27:39;9.65;;;4.97;;
23743;SDS011;12052;53.478;10.182;2022-11-20T16:30:08;6.22;;;4.53;;
23743;SDS011;12052;53.478;10.182;2022-11-20T16:32:37;6.85;;;4.00;;
23743;SDS011;12052;53.478;10.182;2022-11-20T16:35:09;6.60;;;3.92;;
23743;SDS011;12052;53.478;10.182;2022-11-20T16:37:35;18.35;;;6.95;;
23743;SDS011;12052;53.478;10.182;2022-11-20T16:40:01;21.63;;;10.60;;
23743;SDS011;12052;53.478;10.182;2022-11-20T16:42:30;15.73;;;8.95;;
23743;SDS011;12052;53.478;10.182;2022-11-20T16:44:59;9.55;;;5.68;;
23743;SDS011;12052;53.478;10.182;2022-11-20T16:47:28;9.65;;;5.80;;
23743;SDS011;12052;53.478;10.182;2022-11-20T16:50:03;10.80;;;6.03;;